AIG weather

Langlade County Airport
Antigo, Wisconsin, United States

Public forecast

Using degrees Fahrenheit for public forecast. Weather courtesy of forecast.io.

Current aviation weather report (METAR) for Langlade County Airport

Retrieved 2020/02/18 06:35 UTC (0 seconds ago):

KAIG 180635Z AUTO 00000KT 1 1/4SM -SN OVC015 M03/M03 A2978 RMK AO2 T10301031

Closest aviation forecast (TAF) to Langlade County Airport

Closest forecast is Wausau Downtown Airport, 25.8 nm (47.8 km) WSW. Retrieved 2020/02/18 06:22 UTC (0 seconds ago):

TAF KAUW 180520Z 1806/1906 09004KT 2SM -SN OVC012 TEMPO 1806/1807 1SM -SN BR OVC006 FM180700 33009G16KT 3SM -SHSN BKN006 FM180900 31011G19KT P6SM BKN035